sensor_id;sensor_type;location;lat;lon;timestamp;pressure;altitude;pressure_sealevel;temperature;humidity
3668;BME280;24099;47.102;15.440;2022-10-30T00:00:16;97786.22;;;10.39;100.00
3668;BME280;24099;47.102;15.440;2022-10-30T00:02:46;97788.19;;;10.28;100.00
3668;BME280;24099;47.102;15.440;2022-10-30T00:05:14;97785.41;;;10.38;100.00
3668;BME280;24099;47.102;15.440;2022-10-30T00:07:43;97789.50;;;10.24;100.00
3668;BME280;24099;47.102;15.440;2022-10-30T00:10:13;97784.75;;;10.36;100.00
3668;BME280;24099;47.102;15.440;2022-10-30T00:12:42;97785.22;;;10.40;100.00
3668;BME280;24099;47.102;15.440;2022-10-30T00:15:10;97788.16;;;10.45;100.00
3668;BME280;24099;47.102;15.440;2022-10-30T00:17:38;97787.19;;;10.54;100.00
3668;BME280;24099;47.102;15.440;2022-10-30T00:20:07;97787.84;;;10.56;100.00
3668;BME280;24099;47.102;15.440;2022-10-30T00:22:35;97782.75;;;10.46;100.00
3668;BME280;24099;47.102;15.440;2022-10-30T00:25:03;97785.53;;;10.45;100.00
3668;BME280;24099;47.102;15.440;2022-10-30T00:27:33;97779.13;;;10.55;100.00
3668;BME280;24099;47.102;15.440;2022-10-30T00:30:01;97782.88;;;10.61;100.00
3668;BME280;24099;47.102;15.440;2022-10-30T00:32:28;97780.25;;;10.61;100.00
3668;BME280;24099;47.102;15.440;2022-10-30T00:34:56;97775.81;;;10.61;100.00
3668;BME280;24099;47.102;15.440;2022-10-30T00:37:24;97775.66;;;10.63;100.00
3668;BME280;24099;47.102;15.440;2022-10-30T00:39:51;97774.00;;;10.62;100.00
3668;BME280;24099;47.102;15.440;2022-10-30T00:42:19;97764.44;;;10.69;100.00
3668;BME280;24099;47.102;15.440;2022-10-30T00:44:49;97773.50;;;10.75;100.00
3668;BME280;24099;47.102;15.440;2022-10-30T00:47:22;97773.84;;;10.72;100.00
3668;BME280;24099;47.102;15.440;2022-10-30T00:49:58;97765.59;;;10.75;100.00
3668;BME280;24099;47.102;15.440;2022-10-30T00:52:30;97769.03;;;10.83;100.00
3668;BME280;24099;47.102;15.440;2022-10-30T00:55:03;97761.44;;;10.80;100.00
3668;BME280;24099;47.102;15.440;2022-10-30T00:57:33;97764.63;;;10.67;100.00
3668;BME280;24099;47.102;15.440;2022-10-30T01:00:05;97766.41;;;10.75;100.00
3668;BME280;24099;47.102;15.440;2022-10-30T01:02:35;97767.69;;;10.95;100.00
3668;BME280;24099;47.102;15.440;2022-10-30T01:05:05;97760.47;;;10.81;100.00
3668;BME280;24099;47.102;15.440;2022-10-30T01:07:34;97760.13;;;10.84;100.00
3668;BME280;24099;47.102;15.440;2022-10-30T01:10:01;97756.00;;;10.90;100.00
3668;BME280;24099;47.102;15.440;2022-10-30T01:12:29;97758.13;;;10.94;100.00
3668;BME280;24099;47.102;15.440;2022-10-30T01:14:59;97751.41;;;10.92;100.00
3668;BME280;24099;47.102;15.440;2022-10-30T01:20:54;97750.91;;;10.96;100.00
3668;BME280;24099;47.102;15.440;2022-10-30T01:23:35;97740.81;;;11.00;100.00
3668;BME280;24099;47.102;15.440;2022-10-30T01:26:10;97741.84;;;10.99;100.00
3668;BME280;24099;47.102;15.440;2022-10-30T01:28:54;97736.25;;;10.86;100.00
3668;BME280;24099;47.102;15.440;2022-10-30T01:31:34;97743.31;;;10.93;100.00
3668;BME280;24099;47.102;15.440;2022-10-30T01:34:14;97740.34;;;10.96;100.00
3668;BME280;24099;47.102;15.440;2022-10-30T01:36:47;97740.38;;;10.88;100.00
3668;BME280;24099;47.102;15.440;2022-10-30T01:39:20;97736.41;;;10.92;100.00
3668;BME280;24099;47.102;15.440;2022-10-30T01:41:50;97737.41;;;10.91;100.00
3668;BME280;24099;47.102;15.440;2022-10-30T01:44:21;97735.44;;;10.93;100.00
3668;BME280;24099;47.102;15.440;2022-10-30T01:47:07;97729.19;;;10.86;100.00
3668;BME280;24099;47.102;15.440;2022-10-30T01:50:13;97736.44;;;10.84;100.00
3668;BME280;24099;47.102;15.440;2022-10-30T01:52:51;97732.31;;;10.82;100.00
3668;BME280;24099;47.102;15.440;2022-10-30T01:55:30;97726.75;;;10.77;100.00
3668;BME280;24099;47.102;15.440;2022-10-30T01:58:09;97724.47;;;10.74;100.00
3668;BME280;24099;47.102;15.440;2022-10-30T02:00:46;97727.09;;;10.74;100.00
3668;BME280;24099;47.102;15.440;2022-10-30T02:03:15;97729.72;;;10.74;100.00
3668;BME280;24099;47.102;15.440;2022-10-30T02:05:48;97726.94;;;10.75;100.00
3668;BME280;24099;47.102;15.440;2022-10-30T02:08:18;97722.19;;;10.62;100.00
3668;BME280;24099;47.102;15.440;2022-10-30T02:10:48;97718.56;;;10.63;100.00
3668;BME280;24099;47.102;15.440;2022-10-30T02:13:28;97715.25;;;10.61;100.00
3668;BME280;24099;47.102;15.440;2022-10-30T02:15:58;97718.88;;;10.60;100.00
3668;BME280;24099;47.102;15.440;2022-10-30T02:18:26;97716.75;;;10.64;100.00
3668;BME280;24099;47.102;15.440;2022-10-30T02:20:56;97708.41;;;10.52;100.00
3668;BME280;24099;47.102;15.440;2022-10-30T02:23:24;97711.69;;;10.46;100.00
3668;BME280;24099;47.102;15.440;2022-10-30T02:25:53;97713.34;;;10.47;100.00
3668;BME280;24099;47.102;15.440;2022-10-30T02:28:21;97711.19;;;10.43;100.00
3668;BME280;24099;47.102;15.440;2022-10-30T02:30:48;97714.53;;;10.37;100.00
3668;BME280;24099;47.102;15.440;2022-10-30T02:33:16;97709.09;;;10.30;100.00
3668;BME280;24099;47.102;15.440;2022-10-30T02:35:44;97707.13;;;10.24;100.00
3668;BME280;24099;47.102;15.440;2022-10-30T02:38:14;97706.78;;;10.27;100.00
3668;BME280;24099;47.102;15.440;2022-10-30T02:40:41;97710.06;;;10.29;100.00
3668;BME280;24099;47.102;15.440;2022-10-30T02:43:09;97712.06;;;10.27;100.00
3668;BME280;24099;47.102;15.440;2022-10-30T02:45:36;97708.09;;;10.23;100.00
3668;BME280;24099;47.102;15.440;2022-10-30T02:48:04;97710.25;;;10.19;100.00
3668;BME280;24099;47.102;15.440;2022-10-30T02:50:32;97705.97;;;10.18;100.00
3668;BME280;24099;47.102;15.440;2022-10-30T02:53:01;97704.31;;;10.17;100.00
3668;BME280;24099;47.102;15.440;2022-10-30T02:55:30;97712.22;;;10.17;100.00
3668;BME280;24099;47.102;15.440;2022-10-30T02:57:58;97701.03;;;10.15;100.00
3668;BME280;24099;47.102;15.440;2022-10-30T03:00:26;97705.63;;;10.13;100.00
3668;BME280;24099;47.102;15.440;2022-10-30T03:02:56;97698.72;;;10.12;100.00
3668;BME280;24099;47.102;15.440;2022-10-30T03:05:24;97708.75;;;10.09;100.00
3668;BME280;24099;47.102;15.440;2022-10-30T03:07:54;97703.66;;;10.15;100.00
3668;BME280;24099;47.102;15.440;2022-10-30T03:10:22;97704.81;;;10.05;100.00
3668;BME280;24099;47.102;15.440;2022-10-30T03:12:52;97708.94;;;9.99;100.00
3668;BME280;24099;47.102;15.440;2022-10-30T03:15:20;97711.72;;;9.97;100.00
3668;BME280;24099;47.102;15.440;2022-10-30T03:17:50;97709.25;;;9.96;100.00
3668;BME280;24099;47.102;15.440;2022-10-30T03:20:18;97715.00;;;9.99;100.00
3668;BME280;24099;47.102;15.440;2022-10-30T03:22:46;97715.34;;;9.96;100.00
3668;BME280;24099;47.102;15.440;2022-10-30T03:25:13;97713.00;;;10.01;100.00
3668;BME280;24099;47.102;15.440;2022-10-30T03:27:41;97712.56;;;9.98;100.00
3668;BME280;24099;47.102;15.440;2022-10-30T03:30:11;97711.03;;;10.03;100.00
3668;BME280;24099;47.102;15.440;2022-10-30T03:32:39;97709.06;;;10.06;100.00
3668;BME280;24099;47.102;15.440;2022-10-30T03:35:07;97707.28;;;10.06;100.00
3668;BME280;24099;47.102;15.440;2022-10-30T03:37:35;97713.03;;;9.93;100.00
3668;BME280;24099;47.102;15.440;2022-10-30T03:40:04;97714.66;;;9.86;100.00
3668;BME280;24099;47.102;15.440;2022-10-30T03:42:33;97711.72;;;9.89;100.00
3668;BME280;24099;47.102;15.440;2022-10-30T03:45:01;97708.28;;;9.97;100.00
3668;BME280;24099;47.102;15.440;2022-10-30T03:47:31;97699.88;;;9.85;100.00
3668;BME280;24099;47.102;15.440;2022-10-30T03:50:03;97705.78;;;9.87;100.00
3668;BME280;24099;47.102;15.440;2022-10-30T03:52:31;97709.91;;;9.90;100.00
3668;BME280;24099;47.102;15.440;2022-10-30T03:54:59;97701.69;;;9.85;100.00
3668;BME280;24099;47.102;15.440;2022-10-30T03:57:27;97702.50;;;9.85;100.00
3668;BME280;24099;47.102;15.440;2022-10-30T04:00:11;97694.28;;;9.80;100.00
3668;BME280;24099;47.102;15.440;2022-10-30T04:02:46;97699.72;;;9.79;100.00
3668;BME280;24099;47.102;15.440;2022-10-30T04:05:16;97691.03;;;9.78;100.00
3668;BME280;24099;47.102;15.440;2022-10-30T04:07:44;97687.88;;;9.83;100.00
3668;BME280;24099;47.102;15.440;2022-10-30T04:10:14;97695.94;;;9.89;100.00
3668;BME280;24099;47.102;15.440;2022-10-30T04:12:42;97692.63;;;9.79;100.00
3668;BME280;24099;47.102;15.440;2022-10-30T04:15:10;97694.47;;;9.79;100.00
3668;BME280;24099;47.102;15.440;2022-10-30T04:17:38;97691.50;;;9.82;100.00
3668;BME280;24099;47.102;15.440;2022-10-30T04:20:09;97693.97;;;9.83;100.00
3668;BME280;24099;47.102;15.440;2022-10-30T04:22:36;97693.47;;;9.80;100.00
3668;BME280;24099;47.102;15.440;2022-10-30T04:25:05;97694.97;;;9.74;100.00
3668;BME280;24099;47.102;15.440;2022-10-30T04:27:39;97695.75;;;9.66;100.00
3668;BME280;24099;47.102;15.440;2022-10-30T04:30:08;97690.03;;;9.71;100.00
3668;BME280;24099;47.102;15.440;2022-10-30T04:32:44;97703.66;;;9.66;100.00
3668;BME280;24099;47.102;15.440;2022-10-30T04:35:13;97693.28;;;9.65;100.00
3668;BME280;24099;47.102;15.440;2022-10-30T04:37:42;97688.88;;;9.65;100.00
3668;BME280;24099;47.102;15.440;2022-10-30T04:40:10;97692.78;;;9.61;100.00
3668;BME280;24099;47.102;15.440;2022-10-30T04:42:50;97693.44;;;9.63;100.00
3668;BME280;24099;47.102;15.440;2022-10-30T04:45:19;97690.34;;;9.52;100.00
3668;BME280;24099;47.102;15.440;2022-10-30T04:47:48;97691.47;;;9.49;100.00
3668;BME280;24099;47.102;15.440;2022-10-30T04:50:18;97690.53;;;9.58;100.00
3668;BME280;24099;47.102;15.440;2022-10-30T04:52:46;97686.25;;;9.57;100.00
3668;BME280;24099;47.102;15.440;2022-10-30T04:55:14;97693.47;;;9.55;100.00
3668;BME280;24099;47.102;15.440;2022-10-30T04:57:44;97692.13;;;9.59;100.00
3668;BME280;24099;47.102;15.440;2022-10-30T05:00:13;97685.56;;;9.63;100.00
3668;BME280;24099;47.102;15.440;2022-10-30T05:02:42;97687.53;;;9.61;100.00
3668;BME280;24099;47.102;15.440;2022-10-30T05:05:10;97690.00;;;9.63;100.00
3668;BME280;24099;47.102;15.440;2022-10-30T05:07:39;97688.06;;;9.57;100.00
3668;BME280;24099;47.102;15.440;2022-10-30T05:10:11;97683.94;;;9.54;100.00
3668;BME280;24099;47.102;15.440;2022-10-30T05:12:44;97691.16;;;9.52;100.00
3668;BME280;24099;47.102;15.440;2022-10-30T05:15:13;97683.13;;;9.54;100.00
3668;BME280;24099;47.102;15.440;2022-10-30T05:17:42;97684.56;;;9.48;100.00
3668;BME280;24099;47.102;15.440;2022-10-30T05:20:10;97675.38;;;9.44;100.00
3668;BME280;24099;47.102;15.440;2022-10-30T05:22:41;97689.31;;;9.45;100.00
3668;BME280;24099;47.102;15.440;2022-10-30T05:25:10;97677.84;;;9.46;100.00
3668;BME280;24099;47.102;15.440;2022-10-30T05:27:38;97678.81;;;9.45;100.00
3668;BME280;24099;47.102;15.440;2022-10-30T05:30:06;97673.88;;;9.42;100.00
3668;BME280;24099;47.102;15.440;2022-10-30T05:32:35;97683.09;;;9.46;100.00
3668;BME280;24099;47.102;15.440;2022-10-30T05:35:04;97679.81;;;9.44;100.00
3668;BME280;24099;47.102;15.440;2022-10-30T05:37:32;97681.78;;;9.50;100.00
3668;BME280;24099;47.102;15.440;2022-10-30T05:40:03;97682.44;;;9.44;100.00
3668;BME280;24099;47.102;15.440;2022-10-30T05:42:32;97691.97;;;9.37;100.00
3668;BME280;24099;47.102;15.440;2022-10-30T05:45:04;97686.19;;;9.41;100.00
3668;BME280;24099;47.102;15.440;2022-10-30T05:47:35;97689.50;;;9.43;100.00
3668;BME280;24099;47.102;15.440;2022-10-30T05:50:05;97696.22;;;9.46;100.00
3668;BME280;24099;47.102;15.440;2022-10-30T05:52:33;97690.66;;;9.49;100.00
3668;BME280;24099;47.102;15.440;2022-10-30T05:55:06;97687.38;;;9.47;100.00
3668;BME280;24099;47.102;15.440;2022-10-30T05:57:42;97689.84;;;9.48;100.00
3668;BME280;24099;47.102;15.440;2022-10-30T06:00:12;97692.81;;;9.53;100.00
3668;BME280;24099;47.102;15.440;2022-10-30T06:02:43;97694.41;;;9.46;100.00
3668;BME280;24099;47.102;15.440;2022-10-30T06:05:15;97695.88;;;9.41;100.00
3668;BME280;24099;47.102;15.440;2022-10-30T06:07:44;97696.41;;;9.52;100.00
3668;BME280;24099;47.102;15.440;2022-10-30T06:10:15;97697.38;;;9.59;100.00
3668;BME280;24099;47.102;15.440;2022-10-30T06:12:59;97707.25;;;9.57;100.00
3668;BME280;24099;47.102;15.440;2022-10-30T06:15:51;97700.53;;;9.55;100.00
3668;BME280;24099;47.102;15.440;2022-10-30T06:18:20;97708.41;;;9.63;100.00
3668;BME280;24099;47.102;15.440;2022-10-30T06:20:54;97708.41;;;9.63;100.00
3668;BME280;24099;47.102;15.440;2022-10-30T06:23:43;97708.56;;;9.61;100.00
3668;BME280;24099;47.102;15.440;2022-10-30T06:26:33;97717.44;;;9.68;100.00
3668;BME280;24099;47.102;15.440;2022-10-30T06:29:06;97722.53;;;9.70;100.00
3668;BME280;24099;47.102;15.440;2022-10-30T06:31:34;97720.09;;;9.77;100.00
3668;BME280;24099;47.102;15.440;2022-10-30T06:34:03;97726.19;;;9.77;100.00
3668;BME280;24099;47.102;15.440;2022-10-30T06:36:33;97719.75;;;9.88;100.00
3668;BME280;24099;47.102;15.440;2022-10-30T06:39:02;97715.31;;;9.88;100.00
3668;BME280;24099;47.102;15.440;2022-10-30T06:41:40;97717.31;;;9.78;100.00
3668;BME280;24099;47.102;15.440;2022-10-30T06:44:27;97715.16;;;9.90;100.00
3668;BME280;24099;47.102;15.440;2022-10-30T06:46:56;97712.88;;;9.95;100.00
3668;BME280;24099;47.102;15.440;2022-10-30T06:49:25;97714.19;;;9.99;100.00
3668;BME280;24099;47.102;15.440;2022-10-30T06:51:54;97714.66;;;10.02;100.00
3668;BME280;24099;47.102;15.440;2022-10-30T06:54:23;97711.22;;;10.10;100.00
3668;BME280;24099;47.102;15.440;2022-10-30T06:57:13;97712.22;;;10.09;100.00
3668;BME280;24099;47.102;15.440;2022-10-30T07:00:12;97714.50;;;10.20;100.00
3668;BME280;24099;47.102;15.440;2022-10-30T07:03:19;97714.03;;;10.33;100.00
3668;BME280;24099;47.102;15.440;2022-10-30T07:05:47;97715.00;;;10.32;100.00
3668;BME280;24099;47.102;15.440;2022-10-30T07:08:15;97711.72;;;10.30;100.00
3668;BME280;24099;47.102;15.440;2022-10-30T07:10:43;97720.13;;;10.33;100.00
3668;BME280;24099;47.102;15.440;2022-10-30T07:13:35;97722.53;;;10.43;100.00
3668;BME280;24099;47.102;15.440;2022-10-30T07:16:24;97735.38;;;10.46;100.00
3668;BME280;24099;47.102;15.440;2022-10-30T07:18:52;97733.22;;;10.50;100.00
3668;BME280;24099;47.102;15.440;2022-10-30T07:21:21;97737.34;;;10.52;100.00
3668;BME280;24099;47.102;15.440;2022-10-30T07:23:49;97731.75;;;10.55;100.00
3668;BME280;24099;47.102;15.440;2022-10-30T07:26:24;97739.13;;;10.60;100.00
3668;BME280;24099;47.102;15.440;2022-10-30T07:28:55;97733.47;;;10.79;100.00
3668;BME280;24099;47.102;15.440;2022-10-30T07:31:29;97736.91;;;10.96;100.00
3668;BME280;24099;47.102;15.440;2022-10-30T07:34:16;97734.16;;;10.73;100.00
3668;BME280;24099;47.102;15.440;2022-10-30T07:36:58;97742.03;;;10.81;100.00
3668;BME280;24099;47.102;15.440;2022-10-30T07:39:38;97738.09;;;11.24;100.00
3668;BME280;24099;47.102;15.440;2022-10-30T07:42:21;97743.41;;;11.16;100.00
3668;BME280;24099;47.102;15.440;2022-10-30T07:45:09;97738.09;;;11.24;100.00
3668;BME280;24099;47.102;15.440;2022-10-30T07:47:57;97739.88;;;11.32;100.00
3668;BME280;24099;47.102;15.440;2022-10-30T07:50:34;97745.13;;;11.32;100.00
3668;BME280;24099;47.102;15.440;2022-10-30T07:53:02;97748.59;;;11.32;100.00
3668;BME280;24099;47.102;15.440;2022-10-30T07:55:34;97751.34;;;11.39;100.00
3668;BME280;24099;47.102;15.440;2022-10-30T07:58:14;97749.50;;;11.48;100.00
3668;BME280;24099;47.102;15.440;2022-10-30T08:01:07;97743.09;;;11.73;100.00
3668;BME280;24099;47.102;15.440;2022-10-30T08:03:36;97746.25;;;11.77;100.00
3668;BME280;24099;47.102;15.440;2022-10-30T08:06:15;97741.03;;;11.91;100.00
3668;BME280;24099;47.102;15.440;2022-10-30T08:08:44;97744.00;;;12.11;100.00
3668;BME280;24099;47.102;15.440;2022-10-30T08:11:30;97738.22;;;12.30;100.00
3668;BME280;24099;47.102;15.440;2022-10-30T08:14:00;97734.78;;;12.45;100.00
3668;BME280;24099;47.102;15.440;2022-10-30T08:16:29;97738.66;;;12.57;100.00
3668;BME280;24099;47.102;15.440;2022-10-30T08:18:57;97729.25;;;12.69;100.00
3668;BME280;24099;47.102;15.440;2022-10-30T08:21:27;97736.56;;;12.96;100.00
3668;BME280;24099;47.102;15.440;2022-10-30T08:23:59;97736.47;;;13.19;100.00
3668;BME280;24099;47.102;15.440;2022-10-30T08:26:30;97733.06;;;13.40;100.00
3668;BME280;24099;47.102;15.440;2022-10-30T08:28:59;97729.22;;;13.42;100.00
3668;BME280;24099;47.102;15.440;2022-10-30T08:31:30;97740.63;;;13.58;100.00
3668;BME280;24099;47.102;15.440;2022-10-30T08:34:02;97735.22;;;13.87;100.00
3668;BME280;24099;47.102;15.440;2022-10-30T08:36:43;97738.22;;;14.05;100.00
3668;BME280;24099;47.102;15.440;2022-10-30T08:39:12;97749.44;;;14.07;100.00
3668;BME280;24099;47.102;15.440;2022-10-30T08:41:59;97745.72;;;14.72;100.00
3668;BME280;24099;47.102;15.440;2022-10-30T08:44:33;97738.03;;;14.77;100.00
3668;BME280;24099;47.102;15.440;2022-10-30T08:47:41;97735.97;;;15.14;100.00
3668;BME280;24099;47.102;15.440;2022-10-30T08:50:08;97734.28;;;15.47;100.00
3668;BME280;24099;47.102;15.440;2022-10-30T08:52:38;97733.13;;;15.63;100.00
3668;BME280;24099;47.102;15.440;2022-10-30T08:55:08;97729.31;;;15.99;100.00
3668;BME280;24099;47.102;15.440;2022-10-30T08:57:36;97718.69;;;16.84;100.00
3668;BME280;24099;47.102;15.440;2022-10-30T09:00:05;97702.50;;;17.88;100.00
3668;BME280;24099;47.102;15.440;2022-10-30T09:03:00;97702.16;;;18.10;100.00
3668;BME280;24099;47.102;15.440;2022-10-30T09:05:47;97700.69;;;17.82;100.00
3668;BME280;24099;47.102;15.440;2022-10-30T09:08:15;97707.19;;;17.55;100.00
3668;BME280;24099;47.102;15.440;2022-10-30T09:11:02;97707.94;;;18.00;100.00
3668;BME280;24099;47.102;15.440;2022-10-30T09:13:30;97705.41;;;17.80;100.00
3668;BME280;24099;47.102;15.440;2022-10-30T09:16:00;97693.00;;;18.24;100.00
3668;BME280;24099;47.102;15.440;2022-10-30T09:18:32;97704.63;;;18.05;100.00
3668;BME280;24099;47.102;15.440;2022-10-30T09:21:00;97709.44;;;17.96;100.00
3668;BME280;24099;47.102;15.440;2022-10-30T09:23:27;97707.81;;;17.50;100.00
3668;BME280;24099;47.102;15.440;2022-10-30T09:26:16;97696.75;;;18.41;100.00
3668;BME280;24099;47.102;15.440;2022-10-30T09:28:56;97696.72;;;19.09;100.00
3668;BME280;24099;47.102;15.440;2022-10-30T09:31:39;97698.88;;;19.01;100.00
3668;BME280;24099;47.102;15.440;2022-10-30T09:34:12;97706.78;;;18.71;100.00
3668;BME280;24099;47.102;15.440;2022-10-30T09:36:52;97708.34;;;18.53;100.00
3668;BME280;24099;47.102;15.440;2022-10-30T09:39:20;97714.19;;;18.69;100.00
3668;BME280;24099;47.102;15.440;2022-10-30T09:42:04;97702.81;;;19.16;100.00
3668;BME280;24099;47.102;15.440;2022-10-30T09:44:47;97698.09;;;20.20;100.00
3668;BME280;24099;47.102;15.440;2022-10-30T09:47:27;97704.31;;;20.44;100.00
3668;BME280;24099;47.102;15.440;2022-10-30T09:50:15;97702.94;;;19.58;100.00
3668;BME280;24099;47.102;15.440;2022-10-30T09:52:56;97703.72;;;19.77;100.00
3668;BME280;24099;47.102;15.440;2022-10-30T09:55:32;97698.81;;;19.74;100.00
3668;BME280;24099;47.102;15.440;2022-10-30T09:58:11;97697.44;;;19.83;100.00
3668;BME280;24099;47.102;15.440;2022-10-30T10:00:47;97696.97;;;19.74;100.00
3668;BME280;24099;47.102;15.440;2022-10-30T10:03:47;97692.75;;;20.08;100.00
3668;BME280;24099;47.102;15.440;2022-10-30T10:06:45;97694.81;;;19.94;100.00
3668;BME280;24099;47.102;15.440;2022-10-30T10:09:36;97691.41;;;20.64;100.00
3668;BME280;24099;47.102;15.440;2022-10-30T10:12:32;97685.72;;;20.60;100.00
3668;BME280;24099;47.102;15.440;2022-10-30T10:15:03;97684.66;;;20.85;100.00
3668;BME280;24099;47.102;15.440;2022-10-30T10:17:36;97682.75;;;21.09;100.00
3668;BME280;24099;47.102;15.440;2022-10-30T10:20:14;97683.72;;;20.79;100.00
3668;BME280;24099;47.102;15.440;2022-10-30T10:22:47;97682.81;;;20.50;100.00
3668;BME280;24099;47.102;15.440;2022-10-30T10:25:17;97679.69;;;20.77;100.00
3668;BME280;24099;47.102;15.440;2022-10-30T10:27:59;97678.25;;;20.86;100.00
3668;BME280;24099;47.102;15.440;2022-10-30T10:30:37;97667.66;;;21.43;100.00
3668;BME280;24099;47.102;15.440;2022-10-30T10:36:19;97665.84;;;21.88;100.00
3668;BME280;24099;47.102;15.440;2022-10-30T10:39:22;97670.91;;;22.02;100.00
3668;BME280;24099;47.102;15.440;2022-10-30T10:42:01;97668.38;;;21.95;100.00
3668;BME280;24099;47.102;15.440;2022-10-30T10:44:42;97655.44;;;22.76;100.00
3668;BME280;24099;47.102;15.440;2022-10-30T10:47:31;97654.81;;;22.18;100.00
3668;BME280;24099;47.102;15.440;2022-10-30T10:50:14;97647.09;;;22.39;100.00
3668;BME280;24099;47.102;15.440;2022-10-30T10:52:48;97643.03;;;22.53;100.00
3668;BME280;24099;47.102;15.440;2022-10-30T10:55:25;97639.34;;;22.59;100.00
3668;BME280;24099;47.102;15.440;2022-10-30T10:57:58;97645.75;;;22.75;100.00
3668;BME280;24099;47.102;15.440;2022-10-30T11:00:31;97641.78;;;22.77;100.00
3668;BME280;24099;47.102;15.440;2022-10-30T11:03:04;97637.66;;;22.91;100.00
3668;BME280;24099;47.102;15.440;2022-10-30T11:05:37;97638.97;;;23.11;99.65
3668;BME280;24099;47.102;15.440;2022-10-30T11:08:12;97640.91;;;22.93;98.26
3668;BME280;24099;47.102;15.440;2022-10-30T11:10:44;97636.97;;;22.79;100.00
3668;BME280;24099;47.102;15.440;2022-10-30T11:13:13;97642.22;;;23.34;91.65
3668;BME280;24099;47.102;15.440;2022-10-30T11:15:57;97635.50;;;23.59;88.79
3668;BME280;24099;47.102;15.440;2022-10-30T11:18:27;97630.84;;;23.27;95.36
3668;BME280;24099;47.102;15.440;2022-10-30T11:20:58;97630.53;;;23.24;92.35
3668;BME280;24099;47.102;15.440;2022-10-30T11:23:36;97623.84;;;23.26;98.20
3668;BME280;24099;47.102;15.440;2022-10-30T11:26:28;97634.25;;;22.96;92.94
3668;BME280;24099;47.102;15.440;2022-10-30T11:29:03;97637.19;;;22.94;100.00
3668;BME280;24099;47.102;15.440;2022-10-30T11:31:33;97624.19;;;23.08;97.37
3668;BME280;24099;47.102;15.440;2022-10-30T11:34:24;97626.19;;;22.96;84.60
3668;BME280;24099;47.102;15.440;2022-10-30T11:36:55;97625.69;;;23.48;90.13
3668;BME280;24099;47.102;15.440;2022-10-30T11:39:24;97625.69;;;23.48;91.23
3668;BME280;24099;47.102;15.440;2022-10-30T11:42:00;97623.81;;;23.48;87.48
3668;BME280;24099;47.102;15.440;2022-10-30T11:44:31;97622.34;;;23.89;84.78
3668;BME280;24099;47.102;15.440;2022-10-30T11:47:00;97611.84;;;23.88;86.87
3668;BME280;24099;47.102;15.440;2022-10-30T11:49:36;97611.91;;;23.93;86.06
3668;BME280;24099;47.102;15.440;2022-10-30T11:52:06;97608.34;;;23.87;87.82
3668;BME280;24099;47.102;15.440;2022-10-30T11:54:36;97612.38;;;23.85;86.87
3668;BME280;24099;47.102;15.440;2022-10-30T11:57:18;97599.50;;;24.24;84.85
3668;BME280;24099;47.102;15.440;2022-10-30T11:59:48;97601.06;;;24.20;85.33
3668;BME280;24099;47.102;15.440;2022-10-30T12:02:23;97598.88;;;24.12;83.52
3668;BME280;24099;47.102;15.440;2022-10-30T12:04:53;97601.16;;;23.93;81.89
3668;BME280;24099;47.102;15.440;2022-10-30T12:07:26;97602.31;;;24.07;85.18
3668;BME280;24099;47.102;15.440;2022-10-30T12:09:56;97600.63;;;23.96;87.57
3668;BME280;24099;47.102;15.440;2022-10-30T12:12:31;97607.09;;;23.95;97.00
3668;BME280;24099;47.102;15.440;2022-10-30T12:15:09;97598.53;;;24.40;92.54
3668;BME280;24099;47.102;15.440;2022-10-30T12:17:39;97596.09;;;24.38;89.55
3668;BME280;24099;47.102;15.440;2022-10-30T12:20:12;97588.66;;;25.03;85.45
3668;BME280;24099;47.102;15.440;2022-10-30T12:22:42;97588.09;;;24.96;88.70
3668;BME280;24099;47.102;15.440;2022-10-30T12:25:20;97582.00;;;25.31;84.93
3668;BME280;24099;47.102;15.440;2022-10-30T12:27:51;97579.91;;;24.76;82.08
3668;BME280;24099;47.102;15.440;2022-10-30T12:30:30;97584.13;;;24.19;86.92
3668;BME280;24099;47.102;15.440;2022-10-30T12:33:02;97574.75;;;24.69;94.20
3668;BME280;24099;47.102;15.440;2022-10-30T12:35:41;97576.41;;;25.63;84.58
3668;BME280;24099;47.102;15.440;2022-10-30T12:38:16;97570.03;;;24.44;84.55
3668;BME280;24099;47.102;15.440;2022-10-30T12:40:57;97570.03;;;24.44;84.83
3668;BME280;24099;47.102;15.440;2022-10-30T12:43:27;97564.28;;;24.72;79.51
3668;BME280;24099;47.102;15.440;2022-10-30T12:46:07;97572.00;;;24.54;89.89
3668;BME280;24099;47.102;15.440;2022-10-30T12:48:43;97570.91;;;24.13;87.71
3668;BME280;24099;47.102;15.440;2022-10-30T12:51:22;97572.91;;;24.27;98.27
3668;BME280;24099;47.102;15.440;2022-10-30T12:53:58;97572.88;;;23.90;100.00
3668;BME280;24099;47.102;15.440;2022-10-30T12:56:33;97562.78;;;24.08;89.64
3668;BME280;24099;47.102;15.440;2022-10-30T12:59:27;97559.03;;;24.46;94.43
3668;BME280;24099;47.102;15.440;2022-10-30T13:02:00;97554.88;;;24.80;85.38
3668;BME280;24099;47.102;15.440;2022-10-30T13:04:35;97560.47;;;25.36;79.98
3668;BME280;24099;47.102;15.440;2022-10-30T13:07:14;97558.28;;;24.55;89.90
3668;BME280;24099;47.102;15.440;2022-10-30T13:09:48;97556.34;;;24.09;97.09
3668;BME280;24099;47.102;15.440;2022-10-30T13:12:19;97562.25;;;24.05;92.72
3668;BME280;24099;47.102;15.440;2022-10-30T13:14:54;97554.59;;;24.77;86.22
3668;BME280;24099;47.102;15.440;2022-10-30T13:17:24;97554.00;;;24.17;93.65
3668;BME280;24099;47.102;15.440;2022-10-30T13:19:54;97558.38;;;23.59;99.56
3668;BME280;24099;47.102;15.440;2022-10-30T13:22:26;97550.72;;;23.78;96.78
3668;BME280;24099;47.102;15.440;2022-10-30T13:25:02;97549.75;;;23.30;100.00
3668;BME280;24099;47.102;15.440;2022-10-30T13:27:39;97556.63;;;23.21;100.00
3668;BME280;24099;47.102;15.440;2022-10-30T13:30:14;97556.63;;;23.21;100.00
3668;BME280;24099;47.102;15.440;2022-10-30T13:32:52;97556.22;;;23.08;100.00
3668;BME280;24099;47.102;15.440;2022-10-30T13:35:32;97558.59;;;23.04;100.00